Pagrindinis puslapis
METAR-TAF:

METAR-TAF

Oro uostai :

Tel Avivas-Ben Gurion, Izraelis

platuma: 32-00N, ilguma: 034-54E, Aukštis: 40 m

Dabartinis oras

Ataskaita buvo paskelbta 10 minutes, ne 05:20 UTC
Vėjas 1 kt nuo kintamojo kryptimis
Temperatūra 25°C
Drėgmė 65%
Slėgis 1014 hPa
Matomumas 10 km arba daugiau
nėra debesų žemiau 1500 m ir nėra kamuolinių lietaus debesų

METAR: LLBG 180520Z VRB01KT CAVOK 25/18 Q1014 NOSIG

Laikas: 08:30 (05:30 UTC)

Prognozė

Ataskaita buvo paskelbta 6 valandos ir 19 minutes, ne 23:11 UTC
Prognozė galioja nuo 18 metu 00 UTC su 18 metu 24 UTC
Vėjas 4 kt iš Rytų/Pietryčių
Matomumas 10 km arba daugiau
nėra debesų žemiau 1500 m ir nėra kamuolinių lietaus debesų
Tapsmas
nuo 18 metu 07 UTC su 18 metu 09 UTC
Vėjas 15 kt iš Šiaurės/Šiaurės Vakarų
Tapsmas
nuo 18 metu 15 UTC su 18 metu 17 UTC
Vėjas 6 kt iš Šiaurės
Matomumas 10 km arba daugiau
Mažai debesys ne aukštis 1800 ft

TAF: LLBG 172311Z 1800/1824 12004KT CAVOK BECMG 1807/1809 33015KT BECMG 1815/1817 01006KT 9999 FEW018 TX33/1810Z TN21/1803Z

Orai ataskaitas ir orų prognozės (METAR, TAF).

turimą stotys yra geltonos ir raudonos taškus žemėlapyje.

Perkelti pele per norėdami pamatyti stoties vardą.

Tada spustelėkite, norėdami matyti oro stebėjimo ir prognozės.

Norėdami pakeisti žemėlapį: spustelėkite ant žalios mygtukų su juodo kryžiaus žemyn,; žalią mygtuką su brūkšneliu, jei norite nutolinti; arba žalių rodyklių gretimoms žemėlapius.


METAR-TAF: